createdAt,value
2019-03-04T00:02:07.633Z,80.46
2019-03-04T00:04:39.702Z,80.72
2019-03-04T00:07:11.554Z,80.79
2019-03-04T00:09:44.055Z,80.79
2019-03-04T00:12:15.942Z,80.60
2019-03-04T00:14:47.948Z,80.44
2019-03-04T00:17:19.875Z,80.41
2019-03-04T00:19:51.758Z,80.56
2019-03-04T00:22:24.731Z,80.48
2019-03-04T00:24:56.683Z,80.52
2019-03-04T00:27:28.556Z,80.64
2019-03-04T00:30:00.522Z,80.57
2019-03-04T00:32:32.744Z,80.79
2019-03-04T00:35:05.007Z,80.57
2019-03-04T00:37:36.771Z,80.44
2019-03-04T00:40:10.449Z,80.02
2019-03-04T00:42:42.212Z,80.21
2019-03-04T00:45:14.193Z,80.12
2019-03-04T00:47:45.960Z,80.12
2019-03-04T00:50:18.124Z,80.52
2019-03-04T00:52:49.903Z,80.51
2019-03-04T00:55:21.953Z,80.52
2019-03-04T00:57:53.739Z,80.62
2019-03-04T01:00:26.263Z,80.45
2019-03-04T01:02:58.030Z,80.51
2019-03-04T01:05:29.905Z,80.19
2019-03-04T01:08:01.644Z,80.38
2019-03-04T01:10:33.827Z,80.51
2019-03-04T01:13:05.915Z,80.55
2019-03-04T01:15:38.050Z,80.65
2019-03-04T01:18:09.798Z,81.04
2019-03-04T01:20:41.865Z,81.01
2019-03-04T01:23:13.605Z,81.12
2019-03-04T01:25:45.449Z,80.94
2019-03-04T01:28:17.252Z,80.75
2019-03-04T01:30:49.321Z,80.71
2019-03-04T01:33:21.253Z,80.59
2019-03-04T01:35:53.342Z,80.71
2019-03-04T01:38:25.120Z,80.67
2019-03-04T01:40:57.175Z,80.56
2019-03-04T01:43:28.954Z,80.42
2019-03-04T01:46:01.002Z,80.60
2019-03-04T01:48:32.769Z,80.78
2019-03-04T01:51:04.750Z,80.60
2019-03-04T01:53:36.516Z,80.48
2019-03-04T01:56:08.665Z,80.45
2019-03-04T01:58:40.453Z,80.79
2019-03-04T02:01:12.245Z,80.88
2019-03-04T02:03:44.001Z,80.73
2019-03-04T02:06:16.003Z,80.87
2019-03-04T02:08:47.763Z,80.88
2019-03-04T02:11:19.935Z,81.00
2019-03-04T02:13:51.741Z,81.27
2019-03-04T02:16:23.847Z,81.16
2019-03-04T02:18:55.604Z,81.08
2019-03-04T02:21:27.786Z,81.18
2019-03-04T02:24:19.162Z,81.00
2019-03-04T02:26:51.276Z,80.79
2019-03-04T02:29:23.088Z,80.62
2019-03-04T02:31:55.088Z,80.42
2019-03-04T02:34:26.830Z,80.20
2019-03-04T02:36:58.918Z,79.99
2019-03-04T02:39:30.723Z,79.92
2019-03-04T02:42:02.892Z,79.76
2019-03-04T02:44:34.722Z,79.67
2019-03-04T02:47:06.754Z,79.43
2019-03-04T02:49:38.522Z,79.16
2019-03-04T02:52:10.588Z,78.97
2019-03-04T02:54:42.320Z,79.02
2019-03-04T02:57:14.338Z,78.69
2019-03-04T02:59:46.089Z,78.68
2019-03-04T03:02:17.891Z,78.67
2019-03-04T03:04:49.658Z,78.47
2019-03-04T03:07:22.799Z,78.36
2019-03-04T03:09:55.875Z,78.44
2019-03-04T03:12:28.455Z,78.91
2019-03-04T03:15:00.451Z,78.47
2019-03-04T03:17:32.907Z,78.45
2019-03-04T03:20:04.868Z,78.47
2019-03-04T03:22:36.925Z,78.39
2019-03-04T03:25:09.218Z,77.83
2019-03-04T03:27:41.321Z,77.85
2019-03-04T03:30:13.394Z,77.83
2019-03-04T03:32:45.215Z,77.82
2019-03-04T03:35:17.055Z,77.80
2019-03-04T03:37:48.886Z,77.59
2019-03-04T03:40:20.785Z,77.27
2019-03-04T03:42:52.623Z,77.06
2019-03-04T03:45:24.349Z,77.26
2019-03-04T03:47:56.216Z,76.58
2019-03-04T03:50:27.946Z,76.74
2019-03-04T03:53:00.089Z,76.79
2019-03-04T03:55:32.793Z,76.47
2019-03-04T03:58:05.023Z,76.72
2019-03-04T04:00:36.759Z,76.94
2019-03-04T04:03:08.852Z,76.87
2019-03-04T04:05:40.580Z,76.58
2019-03-04T04:08:12.355Z,76.51
2019-03-04T04:10:44.101Z,76.16
2019-03-04T04:13:16.361Z,75.78
2019-03-04T04:15:48.211Z,75.86
2019-03-04T04:18:20.321Z,75.48
2019-03-04T04:20:52.139Z,75.41
2019-03-04T04:23:24.253Z,75.56
2019-03-04T04:25:56.024Z,75.01
2019-03-04T04:28:28.717Z,75.06
2019-03-04T04:31:00.609Z,74.65
2019-03-04T04:33:32.619Z,74.63
2019-03-04T04:36:04.441Z,74.49
2019-03-04T04:38:36.249Z,74.32
2019-03-04T04:41:08.039Z,74.00
2019-03-04T04:43:39.790Z,73.66
2019-03-04T04:46:11.579Z,73.57
2019-03-04T04:48:44.373Z,73.48
2019-03-04T04:51:16.148Z,73.33
2019-03-04T04:53:48.080Z,73.14
2019-03-04T04:56:19.852Z,73.14
2019-03-04T04:58:52.051Z,72.99
2019-03-04T05:01:23.772Z,72.81
2019-03-04T05:03:55.765Z,72.11
2019-03-04T05:06:27.534Z,72.14
2019-03-04T05:08:59.801Z,72.03
2019-03-04T05:11:31.625Z,71.61
2019-03-04T05:14:04.033Z,71.77
2019-03-04T05:16:35.800Z,71.52
2019-03-04T05:19:07.864Z,71.51
2019-03-04T05:21:39.616Z,71.39
2019-03-04T05:24:11.624Z,71.55
2019-03-04T05:26:43.354Z,71.06
2019-03-04T05:29:15.454Z,71.33
2019-03-04T05:31:47.198Z,70.90
2019-03-04T05:34:19.237Z,71.09
2019-03-04T05:36:50.989Z,71.02
2019-03-04T05:39:22.926Z,71.04
2019-03-04T05:41:54.704Z,71.13
2019-03-04T05:44:26.899Z,71.10
2019-03-04T05:46:58.665Z,71.24
2019-03-04T05:49:30.557Z,71.10
2019-03-04T05:52:02.342Z,71.39
2019-03-04T05:54:34.534Z,71.03
2019-03-04T05:57:06.415Z,70.77
2019-03-04T05:59:39.036Z,70.78
2019-03-04T06:02:12.384Z,70.54
2019-03-04T06:04:47.099Z,70.45
2019-03-04T06:07:37.697Z,69.84
2019-03-04T06:10:13.063Z,69.71
2019-03-04T06:12:44.847Z,69.57
2019-03-04T06:15:19.438Z,69.50
2019-03-04T06:17:51.333Z,68.96
2019-03-04T06:20:23.455Z,68.95
2019-03-04T06:22:55.265Z,68.74
2019-03-04T06:25:28.728Z,68.42
2019-03-04T06:28:01.757Z,68.18
2019-03-04T06:30:34.172Z,68.43
2019-03-04T06:33:06.013Z,68.04
2019-03-04T06:35:37.890Z,67.92
2019-03-04T06:38:09.700Z,67.38
2019-03-04T06:40:41.861Z,67.46
2019-03-04T06:43:13.649Z,67.14
2019-03-04T06:45:46.067Z,67.27
2019-03-04T06:48:17.905Z,67.10
2019-03-04T06:50:52.552Z,66.39
2019-03-04T06:53:53.111Z,66.03
2019-03-04T06:57:00.025Z,65.62
2019-03-04T07:00:37.046Z,65.62
2019-03-04T07:03:23.116Z,65.44
2019-03-04T07:05:55.572Z,65.82
2019-03-04T07:09:16.603Z,64.75
2019-03-04T07:11:53.027Z,65.16
2019-03-04T07:14:25.191Z,65.05
2019-03-04T07:16:57.127Z,64.86
2019-03-04T07:19:35.052Z,64.89
2019-03-04T07:22:06.921Z,64.39
2019-03-04T07:24:38.994Z,64.08
2019-03-04T07:27:10.789Z,63.99
2019-03-04T07:29:42.920Z,64.28
2019-03-04T07:32:14.700Z,64.03
2019-03-04T07:34:46.877Z,63.71
2019-03-04T07:37:18.789Z,63.64
2019-03-04T07:39:50.856Z,63.25
2019-03-04T07:42:22.655Z,63.27
2019-03-04T07:44:54.597Z,63.02
2019-03-04T07:47:26.351Z,62.07
2019-03-04T07:49:58.511Z,62.45
2019-03-04T07:52:30.310Z,62.12
2019-03-04T07:55:02.243Z,62.12
2019-03-04T07:57:34.063Z,62.31
2019-03-04T08:00:06.952Z,61.78
2019-03-04T08:02:38.830Z,61.62
2019-03-04T08:05:11.808Z,61.44
2019-03-04T08:07:50.091Z,60.17
2019-03-04T08:11:21.817Z,60.19
2019-03-04T08:13:59.260Z,58.96
2019-03-04T08:16:31.365Z,58.81
2019-03-04T08:19:03.279Z,58.40
2019-03-04T08:21:35.456Z,58.67
2019-03-04T08:24:07.285Z,57.44
2019-03-04T08:26:39.868Z,57.71
2019-03-04T08:29:12.216Z,56.43
2019-03-04T08:31:45.558Z,56.38
2019-03-04T08:34:17.427Z,56.37
2019-03-04T08:36:49.800Z,55.34
2019-03-04T08:39:23.005Z,55.28
2019-03-04T08:41:55.081Z,55.38
2019-03-04T08:44:26.868Z,55.34
2019-03-04T08:46:58.812Z,54.82
2019-03-04T08:49:30.639Z,54.70
2019-03-04T08:52:02.812Z,54.98
2019-03-04T08:54:34.636Z,54.66
2019-03-04T08:57:06.975Z,54.85
2019-03-04T08:59:38.984Z,55.00
2019-03-04T09:02:11.457Z,53.68
2019-03-04T09:04:43.982Z,54.11
2019-03-04T09:07:16.190Z,53.62
2019-03-04T09:09:48.026Z,53.89
2019-03-04T09:12:20.109Z,54.04
2019-03-04T09:14:52.169Z,53.02
2019-03-04T09:17:25.416Z,53.07
2019-03-04T09:19:57.433Z,53.46
2019-03-04T09:22:29.903Z,53.03
2019-03-04T09:25:02.072Z,52.03
2019-03-04T09:27:34.110Z,52.22
2019-03-04T09:30:07.355Z,52.26
2019-03-04T09:32:39.861Z,51.91
2019-03-04T09:35:14.560Z,52.22
2019-03-04T09:37:47.104Z,51.79
2019-03-04T09:40:19.020Z,51.92
2019-03-04T09:42:50.973Z,52.13
2019-03-04T09:45:24.066Z,51.86
2019-03-04T09:47:56.406Z,50.44
2019-03-04T09:50:28.193Z,50.78
2019-03-04T09:53:00.721Z,51.33
2019-03-04T09:55:32.589Z,50.58
2019-03-04T09:58:04.554Z,50.75
2019-03-04T10:00:40.655Z,51.09
2019-03-04T10:04:04.697Z,51.00
2019-03-04T10:07:28.827Z,50.30
2019-03-04T10:10:44.880Z,50.12
2019-03-04T10:14:06.423Z,50.31
2019-03-04T10:17:02.184Z,49.76
2019-03-04T10:20:16.363Z,50.69
2019-03-04T10:23:56.109Z,49.62
2019-03-04T10:27:35.859Z,49.36
2019-03-04T10:30:41.514Z,48.87
2019-03-04T10:34:32.058Z,48.68
2019-03-04T10:37:51.794Z,48.51
2019-03-04T10:41:01.027Z,48.20
2019-03-04T10:44:42.990Z,47.82
2019-03-04T10:47:14.748Z,47.70
2019-03-04T10:49:46.830Z,47.72
2019-03-04T10:52:18.974Z,48.23
2019-03-04T10:54:51.056Z,47.26
2019-03-04T10:57:22.865Z,48.13
2019-03-04T10:59:54.974Z,47.65
2019-03-04T11:02:26.779Z,47.22
2019-03-04T11:04:58.809Z,47.08
2019-03-04T11:07:30.641Z,46.92
2019-03-04T11:10:02.935Z,46.92
2019-03-04T11:12:35.138Z,46.45
2019-03-04T11:15:18.063Z,46.75
2019-03-04T11:17:49.928Z,46.70
2019-03-04T11:20:21.898Z,46.61
2019-03-04T11:22:53.742Z,46.44
2019-03-04T11:25:25.795Z,46.41
2019-03-04T11:27:57.783Z,45.64
2019-03-04T11:30:31.245Z,45.71
2019-03-04T11:33:03.186Z,45.48
2019-03-04T11:35:35.477Z,45.72
2019-03-04T11:38:23.982Z,45.09
2019-03-04T11:40:56.029Z,45.16
2019-03-04T11:43:27.891Z,45.33
2019-03-04T11:46:00.012Z,44.87
2019-03-04T11:48:31.788Z,44.85
2019-03-04T11:51:03.838Z,44.82
2019-03-04T11:53:35.698Z,45.12
2019-03-04T11:56:08.166Z,45.92
2019-03-04T11:58:40.193Z,45.06
2019-03-04T12:01:31.083Z,45.34
2019-03-04T12:04:02.933Z,45.80
2019-03-04T12:06:35.809Z,46.54
2019-03-04T12:09:15.571Z,46.49
2019-03-04T12:11:47.447Z,46.16
2019-03-04T12:14:19.295Z,45.86
2019-03-04T12:16:51.325Z,46.66
2019-03-04T12:19:23.298Z,45.85
2019-03-04T12:21:55.364Z,45.59
2019-03-04T12:24:27.228Z,45.70
2019-03-04T12:26:59.705Z,44.25
2019-03-04T12:29:31.604Z,43.60
2019-03-04T12:32:25.080Z,42.68
2019-03-04T12:34:56.887Z,42.32
2019-03-04T12:37:28.854Z,42.07
2019-03-04T12:40:00.678Z,42.76
2019-03-04T12:51:23.244Z,41.15
2019-03-04T12:53:52.053Z,41.68
2019-03-04T12:56:24.078Z,41.54
2019-03-04T12:58:56.187Z,42.24
2019-03-04T13:01:28.265Z,42.64
2019-03-04T13:04:00.082Z,42.16
2019-03-04T13:06:32.078Z,41.98
2019-03-04T13:09:14.220Z,41.50
2019-03-04T13:11:41.102Z,42.00
2019-03-04T13:14:13.214Z,42.61
2019-03-04T13:16:45.138Z,42.95
2019-03-04T13:19:17.381Z,43.40
2019-03-04T13:21:49.440Z,43.60
2019-03-04T13:24:21.310Z,43.51
2019-03-04T13:26:53.281Z,42.66
2019-03-04T13:29:25.705Z,43.31
2019-03-04T13:31:57.709Z,42.96
2019-03-04T13:34:29.478Z,43.17
2019-03-04T13:37:01.540Z,42.10
2019-03-04T13:39:33.366Z,42.23
2019-03-04T13:42:05.964Z,42.04
2019-03-04T13:44:37.747Z,41.61
2019-03-04T13:47:09.658Z,41.06
2019-03-04T13:49:41.595Z,41.07
2019-03-04T13:52:15.069Z,41.63
2019-03-04T13:54:46.857Z,42.12
2019-03-04T13:57:19.085Z,42.33
2019-03-04T13:59:51.133Z,42.09
2019-03-04T14:02:23.101Z,41.38
2019-03-04T14:04:54.953Z,39.19
2019-03-04T14:07:27.142Z,39.01
2019-03-04T14:09:59.028Z,39.87
2019-03-04T14:12:31.091Z,40.61
2019-03-04T14:15:03.303Z,42.19
2019-03-04T14:17:36.429Z,42.18
2019-03-04T14:20:09.507Z,41.98
2019-03-04T14:22:41.371Z,42.02
2019-03-04T14:25:13.412Z,41.95
2019-03-04T14:27:45.506Z,42.21
2019-03-04T14:30:18.320Z,41.13
2019-03-04T14:32:50.476Z,40.73
2019-03-04T14:35:22.456Z,40.61
2019-03-04T14:37:54.557Z,37.83
2019-03-04T14:40:26.369Z,37.39
2019-03-04T14:42:58.433Z,34.83
2019-03-04T14:45:30.555Z,34.86
2019-03-04T14:48:02.775Z,35.61
2019-03-04T14:50:34.619Z,36.93
2019-03-04T14:53:06.786Z,38.55
2019-03-04T14:55:38.740Z,39.64
2019-03-04T14:58:10.648Z,39.80
2019-03-04T15:00:44.112Z,40.36
2019-03-04T15:03:23.227Z,40.43
2019-03-04T15:05:49.800Z,40.81
2019-03-04T15:08:21.968Z,40.62
2019-03-04T15:10:53.999Z,41.09
2019-03-04T15:13:26.317Z,41.29
2019-03-04T15:16:01.445Z,41.33
2019-03-04T15:18:32.173Z,41.35
2019-03-04T15:21:04.432Z,41.27
2019-03-04T15:23:36.715Z,41.25
2019-03-04T15:26:08.609Z,41.35
2019-03-04T15:28:40.858Z,40.76
2019-03-04T15:31:13.030Z,40.40
2019-03-04T15:33:45.309Z,40.78
2019-03-04T15:36:17.280Z,40.27
2019-03-04T15:38:49.355Z,40.59
2019-03-04T15:41:22.456Z,40.52
2019-03-04T15:43:54.679Z,40.96
2019-03-04T15:46:26.832Z,40.58
2019-03-04T15:48:59.039Z,40.58
2019-03-04T15:51:30.964Z,40.60
2019-03-04T15:54:03.030Z,40.32
2019-03-04T15:56:35.554Z,40.32
2019-03-04T15:59:08.306Z,40.29
2019-03-04T16:01:41.728Z,40.06
2019-03-04T16:04:16.440Z,40.58
2019-03-04T16:06:48.206Z,40.07
2019-03-04T16:09:23.162Z,40.34
2019-03-04T16:11:54.929Z,40.82
2019-03-04T16:14:26.882Z,41.04
2019-03-04T16:16:58.728Z,41.30
2019-03-04T16:19:30.878Z,41.53
2019-03-04T16:22:02.800Z,41.47
2019-03-04T16:24:34.899Z,41.64
2019-03-04T16:27:13.829Z,41.78
2019-03-04T16:29:45.753Z,41.93
2019-03-04T16:32:17.522Z,41.69
2019-03-04T16:34:49.422Z,42.00
2019-03-04T16:37:21.422Z,42.22
2019-03-04T16:39:53.627Z,42.67
2019-03-04T16:42:25.418Z,42.92
2019-03-04T16:44:57.304Z,43.39
2019-03-04T16:47:29.329Z,43.41
2019-03-04T16:50:01.497Z,43.56
2019-03-04T16:52:33.747Z,43.75
2019-03-04T16:55:05.940Z,43.94
2019-03-04T16:57:37.887Z,44.32
2019-03-04T17:00:14.209Z,44.51
2019-03-04T17:02:46.485Z,44.65
2019-03-04T17:05:20.302Z,44.78
2019-03-04T17:07:52.488Z,44.32
2019-03-04T17:10:25.279Z,44.25
2019-03-04T17:12:58.011Z,44.15
2019-03-04T17:15:30.484Z,44.00
2019-03-04T17:18:02.739Z,44.17
2019-03-04T17:20:35.005Z,44.42
2019-03-04T17:23:07.764Z,44.48
2019-03-04T17:25:40.229Z,44.01
2019-03-04T17:28:12.529Z,43.83
2019-03-04T17:30:44.662Z,43.72
2019-03-04T17:33:18.291Z,43.84
2019-03-04T17:35:50.783Z,44.04
2019-03-04T17:38:23.141Z,44.33
2019-03-04T17:40:55.905Z,44.08
2019-03-04T17:43:28.057Z,43.46
2019-03-04T17:46:00.390Z,43.14
2019-03-04T17:48:33.632Z,43.03
2019-03-04T17:51:06.288Z,42.57
2019-03-04T17:53:39.069Z,42.43
2019-03-04T17:56:11.907Z,42.15
2019-03-04T17:58:45.123Z,41.96
2019-03-04T18:01:19.177Z,41.73
2019-03-04T18:03:52.119Z,41.29
2019-03-04T18:06:25.830Z,40.86
2019-03-04T18:08:58.691Z,39.82
2019-03-04T18:11:31.886Z,39.69
2019-03-04T18:14:05.196Z,39.57
2019-03-04T18:16:37.958Z,39.25
2019-03-04T18:19:11.389Z,38.90
2019-03-04T18:21:44.113Z,38.76
2019-03-04T18:24:16.897Z,38.62
2019-03-04T18:26:57.820Z,38.51
2019-03-04T18:30:32.651Z,37.79
2019-03-04T18:34:16.277Z,37.94
2019-03-04T18:37:41.625Z,37.65
2019-03-04T18:41:31.201Z,36.81
2019-03-04T18:45:03.121Z,36.08
2019-03-04T18:48:26.177Z,36.01
2019-03-04T18:50:58.818Z,35.53
2019-03-04T18:53:32.220Z,35.62
2019-03-04T18:56:05.234Z,35.17
2019-03-04T18:58:37.473Z,34.12
2019-03-04T19:01:10.454Z,34.47
2019-03-04T19:03:42.825Z,34.69
2019-03-04T19:06:16.212Z,33.30
2019-03-04T19:08:48.859Z,33.61
2019-03-04T19:11:20.899Z,33.13
2019-03-04T19:13:53.268Z,32.74
2019-03-04T19:16:25.538Z,32.66
2019-03-04T19:18:57.862Z,33.01
2019-03-04T19:21:30.038Z,32.40
2019-03-04T19:24:02.734Z,32.17
2019-03-04T19:26:35.038Z,31.89
2019-03-04T19:29:07.765Z,32.06
2019-03-04T19:31:41.010Z,32.66
2019-03-04T19:34:13.933Z,32.36
2019-03-04T19:36:46.508Z,32.31
2019-03-04T19:39:19.949Z,31.53
2019-03-04T19:41:52.228Z,31.92
2019-03-04T19:44:24.577Z,31.42
2019-03-04T19:46:56.849Z,31.82
2019-03-04T19:49:29.500Z,31.55
2019-03-04T19:52:01.907Z,31.29
2019-03-04T19:54:34.378Z,31.53
2019-03-04T19:57:06.587Z,31.47
2019-03-04T19:59:38.763Z,31.27
2019-03-04T20:02:11.920Z,32.18
2019-03-04T20:04:45.437Z,31.81
2019-03-04T20:07:17.880Z,31.58
2019-03-04T20:09:50.273Z,31.62
2019-03-04T20:12:22.499Z,31.64
2019-03-04T20:14:54.803Z,32.09
2019-03-04T20:17:27.858Z,31.89
2019-03-04T20:19:59.985Z,32.25
2019-03-04T20:22:32.094Z,32.08
2019-03-04T20:25:04.931Z,32.66
2019-03-04T20:27:37.353Z,32.20
2019-03-04T20:30:10.972Z,32.38
2019-03-04T20:32:43.350Z,32.42
2019-03-04T20:35:16.832Z,32.58
2019-03-04T20:37:51.858Z,32.40
2019-03-04T20:40:25.022Z,32.47
2019-03-04T20:42:57.908Z,32.16
2019-03-04T20:45:30.566Z,32.32
2019-03-04T20:48:02.645Z,32.65
2019-03-04T20:50:34.726Z,32.96
2019-03-04T20:53:06.911Z,32.79
2019-03-04T20:55:38.976Z,32.96
2019-03-04T20:58:10.911Z,32.76
2019-03-04T21:00:43.653Z,32.86
2019-03-04T21:03:15.838Z,33.40
2019-03-04T21:05:48.092Z,33.42
2019-03-04T21:08:20.377Z,33.95
2019-03-04T21:10:52.640Z,33.39
2019-03-04T21:13:35.077Z,34.37
2019-03-04T21:16:00.677Z,34.13
2019-03-04T21:18:32.740Z,33.84
2019-03-04T21:21:06.444Z,34.24
2019-03-04T21:23:40.491Z,35.02
2019-03-04T21:26:24.509Z,35.02
2019-03-04T21:29:49.946Z,35.34
2019-03-04T21:33:09.402Z,35.88
2019-03-04T21:36:34.195Z,36.33
2019-03-04T21:39:08.196Z,36.89
2019-03-04T21:42:22.852Z,37.23
2019-03-04T21:45:42.059Z,37.48
2019-03-04T21:48:32.644Z,37.42
2019-03-04T21:51:38.452Z,37.27
2019-03-04T21:54:10.856Z,37.55
2019-03-04T21:57:25.479Z,37.24
2019-03-04T21:59:57.677Z,36.33
2019-03-04T22:02:58.579Z,36.83
2019-03-04T22:05:30.806Z,37.22
2019-03-04T22:08:02.940Z,37.29
2019-03-04T22:10:35.251Z,36.89
2019-03-04T22:13:07.706Z,36.87
2019-03-04T22:15:39.576Z,36.72
2019-03-04T22:18:13.100Z,36.87
2019-03-04T22:20:46.089Z,36.52
2019-03-04T22:23:18.229Z,37.30
2019-03-04T22:26:01.305Z,37.02
2019-03-04T22:28:24.118Z,37.07
2019-03-04T22:30:55.904Z,37.42
2019-03-04T22:33:27.813Z,37.89
2019-03-04T22:35:59.671Z,38.09
2019-03-04T22:38:31.875Z,38.11
2019-03-04T22:41:04.079Z,38.55
2019-03-04T22:43:35.962Z,38.59
2019-03-04T22:46:07.839Z,38.52
2019-03-04T22:48:39.747Z,38.70
2019-03-04T22:51:11.650Z,38.90
2019-03-04T22:53:43.767Z,39.57
2019-03-04T22:56:15.893Z,39.90
2019-03-04T22:58:47.970Z,40.24
2019-03-04T23:01:59.480Z,40.69
2019-03-04T23:05:13.940Z,40.96
2019-03-04T23:07:52.985Z,40.75
2019-03-04T23:10:49.785Z,42.05
2019-03-04T23:14:06.846Z,42.42
2019-03-04T23:16:39.100Z,43.01
2019-03-04T23:19:11.025Z,43.99
2019-03-04T23:21:43.266Z,44.77
2019-03-04T23:24:15.142Z,45.44
2019-03-04T23:26:47.655Z,45.74
2019-03-04T23:29:19.767Z,46.13
2019-03-04T23:31:51.706Z,47.05
2019-03-04T23:34:24.444Z,47.83
2019-03-04T23:36:56.532Z,48.71
2019-03-04T23:39:28.320Z,49.61
2019-03-04T23:42:00.684Z,49.98
2019-03-04T23:44:32.486Z,50.53
2019-03-04T23:47:04.427Z,50.91
2019-03-04T23:49:36.268Z,51.14
2019-03-04T23:52:08.193Z,51.20
2019-03-04T23:54:39.979Z,51.25
2019-03-04T23:57:12.217Z,48.90
2019-03-04T23:59:44.225Z,47.22
